METAR Data
IDs: Format: Raw Decoded Include TAF

Data at: 2149 UTC 22 Sep 2020

METAR for:KBWI (Baltimore-Washington, MD, US)
Text:KBWI 222054Z 27012KT 10SM FEW250 22/05 A3002 RMK AO2 SLP165 T02220050 56028
Temperature: 22.2°C ( 72°F)
Dewpoint: 5.0°C ( 41°F) [RH = 33%]
Pressure (altimeter):30.02 inches Hg (1016.7 mb) [Sea level pressure: 1016.5 mb]
Winds:from the W (270 degrees) at 14 MPH (12 knots; 6.2 m/s)
Visibility:10 or more sm (16+ km)
Ceiling:at least 12,000 feet AGL
Clouds: few clouds at 25000 feet AGL